createdAt,value
2022-08-30T00:00:10.617Z,21.56
2022-08-30T00:02:57.691Z,21.61
2022-08-30T00:05:44.624Z,21.58
2022-08-30T00:08:31.645Z,21.68
2022-08-30T00:11:22.617Z,21.77
2022-08-30T00:14:03.737Z,21.77
2022-08-30T00:16:50.578Z,21.90
2022-08-30T00:19:30.741Z,21.92
2022-08-30T00:22:17.593Z,21.95
2022-08-30T00:24:57.784Z,21.81
2022-08-30T00:27:45.562Z,21.84
2022-08-30T00:30:27.795Z,21.81
2022-08-30T00:33:14.615Z,21.81
2022-08-30T00:35:54.785Z,21.85
2022-08-30T00:38:41.578Z,21.84
2022-08-30T00:41:29.642Z,21.60
2022-08-30T00:44:10.527Z,21.53
2022-08-30T00:46:57.612Z,21.40
2022-08-30T00:49:48.585Z,21.33
2022-08-30T00:52:30.833Z,21.31
2022-08-30T00:55:20.581Z,21.16
2022-08-30T00:58:05.753Z,21.18
2022-08-30T01:00:52.580Z,21.23
2022-08-30T01:03:34.750Z,21.14
2022-08-30T01:06:22.632Z,21.14
2022-08-30T01:09:10.563Z,21.17
2022-08-30T01:11:51.117Z,21.12
2022-08-30T01:14:38.528Z,21.21
2022-08-30T01:17:26.544Z,21.14
2022-08-30T01:20:20.863Z,20.97
2022-08-30T01:23:22.558Z,20.97
2022-08-30T01:26:09.556Z,20.82
2022-08-30T01:29:08.555Z,20.82
2022-08-30T01:31:56.498Z,20.67
2022-08-30T01:34:36.607Z,20.64
2022-08-30T01:37:33.493Z,20.64
2022-08-30T01:40:14.776Z,20.70
2022-08-30T01:43:01.530Z,20.72
2022-08-30T01:45:41.684Z,20.79
2022-08-30T01:48:31.185Z,20.67
2022-08-30T01:51:12.649Z,20.64
2022-08-30T01:54:00.506Z,20.65
2022-08-30T01:56:41.893Z,20.59
2022-08-30T01:59:28.522Z,20.58
2022-08-30T02:02:16.469Z,20.50
2022-08-30T02:05:03.475Z,20.55
2022-08-30T02:07:43.613Z,20.59
2022-08-30T02:10:30.477Z,20.51
2022-08-30T02:13:17.679Z,20.47
2022-08-30T02:15:58.080Z,20.42
2022-08-30T02:18:46.487Z,20.33
2022-08-30T02:21:33.613Z,20.35
2022-08-30T02:24:13.491Z,20.40
2022-08-30T02:27:07.474Z,20.32
2022-08-30T02:29:47.953Z,20.43
2022-08-30T02:32:34.459Z,20.36
2022-08-30T02:35:21.482Z,20.36
2022-08-30T02:38:01.549Z,20.41
2022-08-30T02:40:48.476Z,20.22
2022-08-30T02:43:28.567Z,20.24
2022-08-30T02:46:15.508Z,20.40
2022-08-30T02:48:55.544Z,20.21
2022-08-30T02:51:42.463Z,20.23
2022-08-30T02:54:23.585Z,20.24
2022-08-30T02:57:20.044Z,20.17
2022-08-30T03:00:00.677Z,20.23
2022-08-30T03:02:48.426Z,20.25
2022-08-30T03:05:28.566Z,20.22
2022-08-30T03:26:25.851Z,19.61
2022-08-30T03:29:12.748Z,19.75
2022-08-30T03:31:54.001Z,19.82
2022-08-30T03:34:40.739Z,20.00
2022-08-30T03:37:24.372Z,20.05
2022-08-30T03:40:15.699Z,20.05
2022-08-30T03:42:55.823Z,20.08
2022-08-30T03:45:42.783Z,20.10
2022-08-30T03:48:29.724Z,20.17
2022-08-30T03:51:16.737Z,20.41
2022-08-30T03:53:56.842Z,20.50
2022-08-30T03:56:43.732Z,20.56
2022-08-30T03:59:23.795Z,20.69
2022-08-30T04:02:11.821Z,20.71
2022-08-30T04:04:51.812Z,20.70
2022-08-30T04:07:38.669Z,20.83
2022-08-30T04:10:21.573Z,20.76
2022-08-30T04:13:08.904Z,20.81
2022-08-30T04:15:55.775Z,20.81
2022-08-30T04:18:36.368Z,20.94
2022-08-30T04:21:22.700Z,21.03
2022-08-30T04:24:17.666Z,21.43
2022-08-30T04:27:04.955Z,21.76
2022-08-30T04:29:44.946Z,21.93
2022-08-30T04:32:31.706Z,22.46
2022-08-30T04:35:12.896Z,22.60
2022-08-30T04:37:59.854Z,22.84
2022-08-30T04:40:46.712Z,23.23
2022-08-30T04:43:34.682Z,23.68
2022-08-30T04:46:22.707Z,23.82
2022-08-30T04:49:04.322Z,24.45
2022-08-30T04:51:50.646Z,24.51
2022-08-30T04:54:31.298Z,24.77
2022-08-30T04:57:19.638Z,24.77
2022-08-30T05:00:07.655Z,25.20
2022-08-30T05:02:55.661Z,25.35
2022-08-30T05:05:48.835Z,25.91
2022-08-30T05:08:29.765Z,25.87
2022-08-30T05:11:16.597Z,25.88
2022-08-30T05:14:03.867Z,26.26
2022-08-30T05:16:44.251Z,26.71
2022-08-30T05:19:31.598Z,27.05
2022-08-30T05:22:18.618Z,27.75
2022-08-30T05:25:14.726Z,28.15
2022-08-30T05:28:08.619Z,28.37
2022-08-30T05:30:55.635Z,29.16
2022-08-30T05:33:38.752Z,29.94
2022-08-30T05:36:27.605Z,30.87
2022-08-30T05:39:14.644Z,31.25
2022-08-30T05:41:59.390Z,31.91
2022-08-30T05:44:46.587Z,32.13
2022-08-30T05:47:27.063Z,32.75
2022-08-30T05:50:16.589Z,32.91
2022-08-30T05:52:57.004Z,33.60
2022-08-30T05:55:43.596Z,34.17
2022-08-30T05:58:30.617Z,33.97
2022-08-30T06:01:11.740Z,30.31
2022-08-30T06:04:03.844Z,28.74
2022-08-30T06:06:47.801Z,28.83
2022-08-30T06:09:34.620Z,28.29
2022-08-30T06:12:14.776Z,28.57
2022-08-30T06:15:01.694Z,28.63
2022-08-30T06:17:41.739Z,28.56
2022-08-30T06:20:28.604Z,28.23
2022-08-30T06:23:08.695Z,27.53
2022-08-30T06:25:56.595Z,27.55
2022-08-30T06:28:36.849Z,28.13
2022-08-30T06:31:25.712Z,29.12
2022-08-30T06:34:05.707Z,29.13
2022-08-30T06:36:52.586Z,28.82
2022-08-30T06:39:39.652Z,28.96
2022-08-30T06:42:26.574Z,29.10
2022-08-30T06:45:14.600Z,29.71
2022-08-30T06:48:01.514Z,29.39
2022-08-30T06:50:51.598Z,29.88
2022-08-30T06:53:32.463Z,29.49
2022-08-30T06:56:22.607Z,29.20
2022-08-30T06:59:03.225Z,29.39
2022-08-30T07:01:49.679Z,29.69
2022-08-30T07:04:30.029Z,30.09
2022-08-30T07:07:16.539Z,29.48
2022-08-30T07:10:04.581Z,29.33
2022-08-30T07:12:51.555Z,29.64
2022-08-30T07:15:33.994Z,30.37
2022-08-30T07:18:45.523Z,29.89
2022-08-30T07:21:33.726Z,30.01
2022-08-30T07:24:21.505Z,30.22
2022-08-30T07:27:01.950Z,31.34
2022-08-30T07:29:48.518Z,31.89
2022-08-30T07:32:35.510Z,32.41
2022-08-30T07:35:22.540Z,32.71
2022-08-30T07:38:02.994Z,31.93
2022-08-30T07:40:51.489Z,32.74
2022-08-30T07:43:35.004Z,32.73
2022-08-30T07:46:22.576Z,33.01
2022-08-30T07:49:04.074Z,32.67
2022-08-30T07:51:51.455Z,33.22
2022-08-30T07:54:31.894Z,32.78
2022-08-30T07:57:18.500Z,32.53
2022-08-30T07:59:58.953Z,32.27
2022-08-30T08:02:52.558Z,33.47
2022-08-30T08:05:39.185Z,33.59
2022-08-30T08:08:27.460Z,32.93
2022-08-30T08:11:19.448Z,33.16
2022-08-30T08:14:00.578Z,32.73
2022-08-30T08:16:48.432Z,33.06
2022-08-30T08:19:28.548Z,33.24
2022-08-30T08:22:21.063Z,33.41
2022-08-30T08:25:15.458Z,33.14
2022-08-30T08:28:02.507Z,32.61
2022-08-30T08:30:51.484Z,32.60
2022-08-30T08:33:38.455Z,31.73
2022-08-30T08:36:18.703Z,32.81
2022-08-30T08:39:06.423Z,33.66
2022-08-30T08:41:52.595Z,33.28
2022-08-30T08:44:57.399Z,33.49
2022-08-30T08:47:47.446Z,33.27
2022-08-30T08:50:31.746Z,33.35
2022-08-30T08:53:47.013Z,33.66
2022-08-30T08:56:27.915Z,33.59
2022-08-30T08:59:14.401Z,32.93
2022-08-30T09:02:05.815Z,32.63
2022-08-30T09:04:46.474Z,33.04
2022-08-30T09:07:32.638Z,32.48
2022-08-30T09:10:40.425Z,32.81
2022-08-30T09:13:31.473Z,32.93
2022-08-30T09:16:22.298Z,32.67
2022-08-30T09:19:16.436Z,33.21
2022-08-30T09:22:47.126Z,33.24
2022-08-30T09:25:45.409Z,32.88
2022-08-30T09:28:38.517Z,32.90
2022-08-30T09:32:01.347Z,32.73
2022-08-30T09:34:57.411Z,32.38
2022-08-30T09:37:43.533Z,32.68
2022-08-30T09:40:38.423Z,32.14
2022-08-30T09:43:36.382Z,32.65
2022-08-30T09:46:31.418Z,32.95
2022-08-30T09:49:34.573Z,32.23
2022-08-30T09:52:41.414Z,32.04
2022-08-30T09:55:38.500Z,31.53
2022-08-30T09:58:43.386Z,31.32
2022-08-30T10:01:45.585Z,30.50
2022-08-30T10:05:14.357Z,31.54
2022-08-30T10:08:25.274Z,31.93
2022-08-30T10:11:18.347Z,32.00
2022-08-30T10:14:21.372Z,32.02
2022-08-30T10:17:27.006Z,31.98
2022-08-30T10:20:25.359Z,32.13
2022-08-30T10:23:41.078Z,32.08
2022-08-30T10:26:54.378Z,32.09
2022-08-30T10:29:51.579Z,31.50
2022-08-30T10:32:45.333Z,31.83
2022-08-30T10:35:36.856Z,31.42
2022-08-30T10:38:50.321Z,31.63
2022-08-30T10:41:49.309Z,31.84
2022-08-30T10:44:43.455Z,30.90
2022-08-30T10:47:51.432Z,30.42
2022-08-30T10:51:04.317Z,30.51
2022-08-30T10:53:56.400Z,30.80
2022-08-30T10:56:36.407Z,30.45
2022-08-30T10:59:25.283Z,30.23
2022-08-30T11:02:34.405Z,30.50
2022-08-30T11:05:40.728Z,30.98
2022-08-30T11:08:59.427Z,31.65
2022-08-30T11:11:51.341Z,31.53
2022-08-30T11:14:31.470Z,31.34
2022-08-30T11:17:45.309Z,30.94
2022-08-30T11:20:37.701Z,30.57
2022-08-30T11:23:42.279Z,30.12
2022-08-30T11:26:58.279Z,28.67
2022-08-30T11:29:44.187Z,28.26
2022-08-30T11:32:38.266Z,27.85
2022-08-30T11:35:48.661Z,28.02
2022-08-30T11:38:35.365Z,28.05
2022-08-30T11:41:42.527Z,28.05
2022-08-30T11:44:29.424Z,28.03
2022-08-30T11:47:54.252Z,27.86
2022-08-30T11:51:13.270Z,27.71
2022-08-30T11:54:09.944Z,27.71
2022-08-30T11:57:06.250Z,27.91
2022-08-30T12:00:11.248Z,27.79
2022-08-30T12:03:04.345Z,27.75
2022-08-30T12:05:58.931Z,27.39
2022-08-30T12:08:47.250Z,27.52
2022-08-30T12:11:40.268Z,27.53
2022-08-30T12:14:52.000Z,27.65
2022-08-30T12:18:29.253Z,27.81
2022-08-30T12:21:33.410Z,27.56
2022-08-30T12:24:39.213Z,27.48
2022-08-30T12:27:45.239Z,27.41
2022-08-30T12:30:28.084Z,27.58
2022-08-30T12:33:15.221Z,27.47
2022-08-30T12:36:05.234Z,27.51
2022-08-30T12:38:45.290Z,27.42
2022-08-30T12:41:32.226Z,27.38
2022-08-30T12:44:23.259Z,27.42
2022-08-30T12:47:12.222Z,27.42
2022-08-30T12:50:03.275Z,27.32
2022-08-30T12:52:46.693Z,27.55
2022-08-30T12:55:38.210Z,27.41
2022-08-30T12:58:39.702Z,27.12
2022-08-30T13:01:39.315Z,27.15
2022-08-30T13:04:27.173Z,27.17
2022-08-30T13:07:15.224Z,27.30
2022-08-30T13:10:21.391Z,27.09
2022-08-30T13:13:14.222Z,26.72
2022-08-30T13:15:55.428Z,26.76
2022-08-30T13:18:43.261Z,27.19
2022-08-30T13:21:41.171Z,27.27
2022-08-30T13:24:25.216Z,27.14
2022-08-30T13:27:18.170Z,26.87
2022-08-30T13:29:58.317Z,26.95
2022-08-30T13:32:45.227Z,27.07
2022-08-30T13:35:33.218Z,27.06
2022-08-30T13:38:21.167Z,26.88
2022-08-30T13:41:01.621Z,26.89
2022-08-30T13:46:55.367Z,26.98
2022-08-30T13:49:44.832Z,26.87
2022-08-30T13:52:28.246Z,26.83
2022-08-30T13:55:16.092Z,26.98
2022-08-30T13:58:03.111Z,26.86
2022-08-30T14:00:46.168Z,26.71
2022-08-30T14:03:33.235Z,26.60
2022-08-30T14:06:32.877Z,26.75
2022-08-30T14:09:14.158Z,26.74
2022-08-30T14:12:01.103Z,26.37
2022-08-30T14:14:43.240Z,26.47
2022-08-30T14:17:36.152Z,26.73
2022-08-30T14:20:17.855Z,26.71
2022-08-30T14:23:07.581Z,26.69
2022-08-30T14:26:04.103Z,26.87
2022-08-30T14:28:44.958Z,26.70
2022-08-30T14:31:32.690Z,26.51
2022-08-30T14:34:13.665Z,26.52
2022-08-30T14:37:02.124Z,26.48
2022-08-30T14:39:42.834Z,26.30
2022-08-30T14:42:30.123Z,26.35
2022-08-30T14:45:18.088Z,26.32
2022-08-30T14:48:11.459Z,26.22
2022-08-30T14:50:52.754Z,26.26
2022-08-30T14:53:39.083Z,26.23
2022-08-30T14:56:28.041Z,26.34
2022-08-30T14:59:15.049Z,26.49
2022-08-30T15:02:03.091Z,26.49
2022-08-30T15:04:43.192Z,26.24
2022-08-30T15:07:30.063Z,26.18
2022-08-30T15:10:14.832Z,26.09
2022-08-30T15:28:00.748Z,26.08
2022-08-30T15:30:41.303Z,26.10
2022-08-30T15:33:29.718Z,26.21
2022-08-30T15:36:12.624Z,26.31
2022-08-30T15:39:00.137Z,26.31
2022-08-30T15:41:55.732Z,26.21
2022-08-30T15:44:44.752Z,26.18
2022-08-30T15:47:25.206Z,26.12
2022-08-30T15:50:16.733Z,26.01
2022-08-30T15:52:57.485Z,25.93
2022-08-30T15:55:44.735Z,25.95
2022-08-30T15:58:25.201Z,25.99
2022-08-30T16:01:12.769Z,26.06
2022-08-30T16:03:53.426Z,26.00
2022-08-30T16:06:44.743Z,26.03
2022-08-30T16:09:26.621Z,25.93
2022-08-30T16:12:23.718Z,25.82
2022-08-30T16:15:10.732Z,25.87
2022-08-30T16:17:58.689Z,26.00
2022-08-30T16:20:43.391Z,26.01
2022-08-30T16:23:33.479Z,25.88
2022-08-30T16:26:21.781Z,25.80
2022-08-30T16:29:02.702Z,25.68
2022-08-30T16:31:50.710Z,25.64
2022-08-30T16:34:30.724Z,25.64
2022-08-30T16:37:20.636Z,25.58
2022-08-30T16:40:07.684Z,25.51
2022-08-30T16:42:56.663Z,25.51
2022-08-30T16:45:37.757Z,25.45
2022-08-30T16:48:24.692Z,25.40
2022-08-30T16:51:15.643Z,25.41
2022-08-30T16:53:58.436Z,25.35
2022-08-30T16:56:46.629Z,25.33
2022-08-30T16:59:33.617Z,25.27
2022-08-30T17:02:13.808Z,25.23
2022-08-30T17:05:00.631Z,25.23
2022-08-30T17:07:47.695Z,25.20
2022-08-30T17:10:34.682Z,25.14
2022-08-30T17:13:22.750Z,25.16
2022-08-30T17:16:12.651Z,25.12
2022-08-30T17:19:00.589Z,25.11
2022-08-30T17:21:47.604Z,25.07
2022-08-30T17:24:27.988Z,25.05
2022-08-30T17:27:21.610Z,25.02
2022-08-30T17:30:08.621Z,25.03
2022-08-30T17:32:48.804Z,24.99
2022-08-30T17:35:35.590Z,25.03
2022-08-30T17:38:22.594Z,24.97
2022-08-30T17:41:09.263Z,24.97
2022-08-30T17:43:55.572Z,24.95
2022-08-30T17:46:42.651Z,25.00
2022-08-30T17:49:29.625Z,25.04
2022-08-30T17:52:11.557Z,25.09
2022-08-30T17:54:59.608Z,25.02
2022-08-30T17:57:43.078Z,24.96
2022-08-30T18:00:29.554Z,24.94
2022-08-30T18:03:16.616Z,24.95
2022-08-30T18:05:56.695Z,24.99
2022-08-30T18:08:44.585Z,24.98
2022-08-30T18:11:24.653Z,24.90
2022-08-30T18:14:11.569Z,24.88
2022-08-30T18:17:00.535Z,24.94
2022-08-30T18:19:47.585Z,24.90
2022-08-30T18:22:27.738Z,24.83
2022-08-30T18:25:16.520Z,24.75
2022-08-30T18:28:03.640Z,24.77
2022-08-30T18:30:44.110Z,24.81
2022-08-30T18:33:25.834Z,24.75
2022-08-30T18:36:12.579Z,24.59
2022-08-30T18:38:53.367Z,24.58
2022-08-30T18:41:42.969Z,24.53
2022-08-30T18:44:28.177Z,24.51
2022-08-30T18:47:17.503Z,24.44
2022-08-30T18:50:11.564Z,24.44
2022-08-30T18:52:52.726Z,24.43
2022-08-30T18:55:42.506Z,24.45
2022-08-30T18:58:30.528Z,24.40
2022-08-30T19:01:22.611Z,24.32
2022-08-30T19:04:09.619Z,24.35
2022-08-30T19:06:50.970Z,24.34
2022-08-30T19:09:37.532Z,24.37
2022-08-30T19:12:24.525Z,24.26
2022-08-30T19:15:10.905Z,24.23
2022-08-30T19:17:59.502Z,24.32
2022-08-30T19:20:40.610Z,24.35
2022-08-30T19:26:35.503Z,24.16
2022-08-30T19:29:22.698Z,24.22
2022-08-30T19:32:04.535Z,24.18
2022-08-30T19:34:51.484Z,24.06
2022-08-30T19:37:39.584Z,23.97
2022-08-30T19:40:28.531Z,23.95
2022-08-30T19:43:08.644Z,23.93
2022-08-30T19:46:03.518Z,23.90
2022-08-30T19:48:43.701Z,23.96
2022-08-30T19:51:31.581Z,23.99
2022-08-30T19:54:13.572Z,24.04
2022-08-30T19:57:00.504Z,24.00
2022-08-30T19:59:40.616Z,23.96
2022-08-30T20:02:27.493Z,24.03
2022-08-30T20:05:14.552Z,24.13
2022-08-30T20:08:01.509Z,24.09
2022-08-30T20:10:49.492Z,24.11
2022-08-30T20:13:33.619Z,24.17
2022-08-30T20:16:20.466Z,24.21
2022-08-30T20:19:07.546Z,24.21
2022-08-30T20:21:47.626Z,24.28
2022-08-30T20:27:28.468Z,24.24
2022-08-30T20:30:17.497Z,24.30
2022-08-30T20:32:57.584Z,24.30
2022-08-30T20:35:49.067Z,24.19
2022-08-30T20:38:36.467Z,24.20
2022-08-30T20:41:25.430Z,24.15
2022-08-30T20:44:12.446Z,24.09
2022-08-30T20:47:01.613Z,24.03
2022-08-30T20:49:42.399Z,24.01
2022-08-30T20:52:29.427Z,23.95
2022-08-30T20:55:10.591Z,23.74
2022-08-30T20:57:57.466Z,23.74
2022-08-30T21:00:37.626Z,23.72
2022-08-30T21:03:27.611Z,23.67
2022-08-30T21:06:15.506Z,23.69
2022-08-30T21:09:02.667Z,23.62
2022-08-30T21:11:44.725Z,23.54
2022-08-30T21:14:24.886Z,23.54
2022-08-30T21:17:11.403Z,23.53
2022-08-30T21:20:01.398Z,23.56
2022-08-30T21:22:48.419Z,23.53
2022-08-30T21:25:35.438Z,23.44
2022-08-30T21:28:29.619Z,23.39
2022-08-30T21:31:21.417Z,23.41
2022-08-30T21:34:02.525Z,23.36
2022-08-30T21:36:53.428Z,23.32
2022-08-30T21:39:41.386Z,23.23
2022-08-30T21:42:28.377Z,23.26
2022-08-30T21:45:08.625Z,23.30
2022-08-30T21:47:55.359Z,23.28
2022-08-30T21:50:42.390Z,23.33
2022-08-30T21:53:29.380Z,23.39
2022-08-30T21:56:21.845Z,23.30
2022-08-30T21:59:10.380Z,23.22
2022-08-30T22:01:57.395Z,23.17
2022-08-30T22:04:45.420Z,23.06
2022-08-30T22:07:32.808Z,23.16
2022-08-30T22:10:15.357Z,23.14
2022-08-30T22:12:55.979Z,23.19
2022-08-30T22:15:44.313Z,23.17
2022-08-30T22:18:31.371Z,23.07
2022-08-30T22:21:13.429Z,22.90
2022-08-30T22:24:00.379Z,22.80
2022-08-30T22:26:47.695Z,22.75
2022-08-30T22:29:30.654Z,22.74
2022-08-30T22:32:20.517Z,22.83
2022-08-30T22:35:01.637Z,22.80
2022-08-30T22:37:53.291Z,22.84
2022-08-30T22:40:33.738Z,22.83
2022-08-30T22:43:21.372Z,22.85
2022-08-30T22:46:10.461Z,22.88
2022-08-30T22:48:57.372Z,22.88
2022-08-30T22:51:44.381Z,22.75
2022-08-30T22:54:24.989Z,22.72
2022-08-30T22:57:11.438Z,22.76
2022-08-30T22:59:58.365Z,22.72
2022-08-30T23:02:40.468Z,22.69
2022-08-30T23:05:31.327Z,22.70
2022-08-30T23:08:12.450Z,22.73
2022-08-30T23:10:59.274Z,22.77
2022-08-30T23:13:46.284Z,22.90
2022-08-30T23:16:26.783Z,23.00
2022-08-30T23:19:13.252Z,22.92
2022-08-30T23:21:53.991Z,22.87
2022-08-30T23:24:59.290Z,22.77
2022-08-30T23:28:12.285Z,22.72
2022-08-30T23:31:47.320Z,22.77
2022-08-30T23:34:53.262Z,22.94
2022-08-30T23:37:53.383Z,23.07
2022-08-30T23:40:59.230Z,23.05
2022-08-30T23:43:58.001Z,22.94
2022-08-30T23:47:04.198Z,22.97
2022-08-30T23:50:03.284Z,22.88
2022-08-30T23:53:09.255Z,22.85
2022-08-30T23:56:15.319Z,22.73
2022-08-30T23:59:21.219Z,22.62
